Time;durP1;ratioP1;P1;durP2;ratioP2;P2;SDS_P1;SDS_P2;PMS_P1;PMS_P2;Temp;Humidity;BMP_temperature;BMP_pressure;BME280_temperature;BME280_humidity;BME280_pressure;Samples;Min_cycle;Max_cycle;Signal;HPM_P1;HPM_P2
2022/11/02 00:00:26;;;;;;;7.10;1.35;;;13.00;99.90;;;;;;5072246;28;20051;-86
2022/11/02 00:02:52;;;;;;;6.95;1.08;;;12.90;99.90;;;;;;5055725;28;20048;-86
2022/11/02 00:05:23;;;;;;;5.90;1.20;;;12.80;99.90;;;;;;5039280;28;20127;-86
2022/11/02 00:07:50;;;;;;;5.55;1.05;;;12.80;99.90;;;;;;5019694;28;20088;-86
2022/11/02 00:10:16;;;;;;;5.72;1.33;;;12.90;99.90;;;;;;5053298;28;20557;-86
2022/11/02 00:12:41;;;;;;;4.32;1.15;;;12.90;99.90;;;;;;5055129;28;20040;-86
2022/11/02 00:15:08;;;;;;;3.93;0.80;;;12.90;99.90;;;;;;5055958;28;20041;-85
2022/11/02 00:17:34;;;;;;;6.32;1.30;;;12.90;99.90;;;;;;5051719;28;20114;-86
2022/11/02 00:20:01;;;;;;;;;;;12.80;99.90;;;;;;5055970;28;20051;-86
2022/11/02 00:22:26;;;;;;;7.95;1.42;;;12.80;99.90;;;;;;5038566;28;19916;-86
2022/11/02 00:24:52;;;;;;;5.93;0.75;;;12.80;99.90;;;;;;5071480;28;20040;-86
2022/11/02 00:27:18;;;;;;;7.82;1.10;;;12.90;99.90;;;;;;5038523;28;20476;-86
2022/11/02 00:29:44;;;;;;;1.27;0.63;;;12.70;99.90;;;;;;5038401;28;20049;-85
2022/11/02 00:32:09;;;;;;;6.17;1.20;;;12.60;99.90;;;;;;5038811;28;20105;-85
2022/11/02 00:34:35;;;;;;;3.60;1.00;;;12.40;99.90;;;;;;5071778;28;20286;-83
2022/11/02 00:37:01;;;;;;;7.97;0.95;;;12.30;99.90;;;;;;5054875;28;20040;-83
2022/11/02 00:39:26;;;;;;;6.67;0.93;;;12.30;99.90;;;;;;5038497;28;20032;-84
2022/11/02 00:41:52;;;;;;;5.23;0.90;;;12.20;99.90;;;;;;5037719;28;20119;-78
2022/11/02 00:44:18;;;;;;;5.20;0.93;;;12.10;99.90;;;;;;5051619;28;20290;-78
2022/11/02 00:46:43;;;;;;;3.83;0.80;;;12.00;99.90;;;;;;5020384;28;20045;-78
2022/11/02 00:49:09;;;;;;;6.93;0.87;;;11.80;99.90;;;;;;5020765;28;20054;-78
2022/11/02 00:51:35;;;;;;;4.10;0.90;;;11.80;99.90;;;;;;5036981;28;20330;-78
2022/11/02 00:54:00;;;;;;;4.40;0.70;;;11.80;99.90;;;;;;5037011;28;20041;-78
2022/11/02 00:56:26;;;;;;;5.57;0.90;;;11.70;99.90;;;;;;5037034;28;20043;-78
2022/11/02 00:58:51;;;;;;;2.60;0.70;;;11.70;99.90;;;;;;5036852;28;20290;-78
2022/11/02 01:01:17;;;;;;;4.57;0.88;;;11.70;99.90;;;;;;5053402;28;20037;-79
2022/11/02 01:03:43;;;;;;;2.13;0.80;;;11.60;99.90;;;;;;5052698;28;20036;-79
2022/11/02 01:06:14;;;;;;;4.22;1.00;;;11.70;99.90;;;;;;5069918;28;20054;-78
2022/11/02 01:08:40;;;;;;;1.02;0.50;;;11.60;99.90;;;;;;5069276;28;20058;-78
2022/11/02 01:11:11;;;;;;;15.85;1.15;;;11.60;99.90;;;;;;5053175;28;20047;-78
2022/11/02 01:13:37;;;;;;;3.58;0.82;;;11.60;99.90;;;;;;5053117;28;20070;-77
2022/11/02 01:16:04;;;;;;;2.38;1.05;;;11.50;99.90;;;;;;5020126;28;20048;-78
2022/11/02 01:18:30;;;;;;;4.22;0.70;;;11.50;99.90;;;;;;5050852;28;20045;-78
2022/11/02 01:20:56;;;;;;;1.48;0.40;;;11.40;99.90;;;;;;5052725;28;20404;-78
2022/11/02 01:23:22;;;;;;;3.20;0.55;;;11.40;99.90;;;;;;5053236;28;20456;-79
2022/11/02 01:25:48;;;;;;;2.13;0.50;;;11.40;99.90;;;;;;5036079;28;20028;-78
2022/11/02 01:28:13;;;;;;;3.92;0.93;;;11.30;99.90;;;;;;5036824;28;20090;-78
2022/11/02 01:30:39;;;;;;;2.53;0.40;;;11.30;99.90;;;;;;5020112;28;20105;-78
2022/11/02 01:33:05;;;;;;;2.23;0.60;;;11.20;99.90;;;;;;5052627;28;20043;-79
2022/11/02 01:35:31;;;;;;;1.52;0.70;;;11.20;99.90;;;;;;5069996;28;20032;-79
2022/11/02 01:37:57;;;;;;;1.55;0.50;;;11.10;99.90;;;;;;5069157;28;20044;-79
2022/11/02 01:40:23;;;;;;;1.45;0.50;;;11.00;99.90;;;;;;5052818;28;20032;-79
2022/11/02 01:42:48;;;;;;;1.30;0.40;;;11.10;99.90;;;;;;5035869;28;20040;-79
2022/11/02 01:45:14;;;;;;;3.70;0.57;;;11.00;99.90;;;;;;5036428;28;20522;-78
2022/11/02 01:47:44;;;;;;;2.67;0.60;;;11.00;99.90;;;;;;5036168;28;20306;-78
2022/11/02 01:50:22;;;;;;;3.38;0.43;;;11.10;99.90;;;;;;5069420;28;20052;-79
2022/11/02 01:52:48;;;;;;;3.33;0.70;;;11.10;99.90;;;;;;5072803;28;20040;-79
2022/11/02 01:55:22;;;;;;;1.67;0.70;;;11.10;99.90;;;;;;5057108;28;20037;-79
2022/11/02 01:57:55;;;;;;;2.38;0.57;;;11.10;99.90;;;;;;5056165;28;20032;-79
2022/11/02 02:00:21;;;;;;;1.02;0.50;;;11.10;99.90;;;;;;5073307;28;20043;-78
2022/11/02 02:02:53;;;;;;;3.15;0.73;;;11.10;99.90;;;;;;5056394;28;20036;-78
2022/11/02 02:05:21;;;;;;;3.33;0.80;;;11.10;99.90;;;;;;5073284;28;20079;-79
2022/11/02 02:07:49;;;;;;;3.53;0.80;;;11.10;99.90;;;;;;5056202;28;20040;-79
2022/11/02 02:10:15;;;;;;;2.08;0.73;;;11.00;99.90;;;;;;5056688;28;20033;-79
2022/11/02 02:12:41;;;;;;;4.88;0.98;;;11.00;99.90;;;;;;5056289;28;20032;-79
2022/11/02 02:15:08;;;;;;;4.15;1.00;;;11.00;99.90;;;;;;5072867;28;20040;-79
2022/11/02 02:18:20;;;;;;;3.33;0.90;;;10.90;99.90;;;;;;5056266;28;20083;-78
2022/11/02 02:20:59;;;;;;;3.25;1.10;;;10.90;99.90;;;;;;5050287;28;20047;-78
2022/11/02 02:23:58;;;;;;;3.40;1.17;;;10.90;99.90;;;;;;5073344;28;20436;-79
2022/11/02 02:26:51;;;;;;;4.00;0.88;;;10.90;99.90;;;;;;5072501;28;20044;-79
2022/11/02 02:29:20;;;;;;;5.97;1.15;;;10.90;99.90;;;;;;5054985;28;20033;-79
2022/11/02 02:32:09;;;;;;;4.63;1.25;;;11.00;99.90;;;;;;5072505;28;20119;-78
2022/11/02 02:34:56;;;;;;;4.80;1.83;;;11.10;99.90;;;;;;5055563;28;20037;-78
2022/11/02 02:37:43;;;;;;;3.67;1.57;;;11.00;99.90;;;;;;5072838;28;20123;-79
2022/11/02 02:40:17;;;;;;;5.47;1.50;;;11.00;99.90;;;;;;5053627;28;20751;-79
2022/11/02 02:42:49;;;;;;;4.30;1.15;;;11.10;99.90;;;;;;5072512;28;20111;-79
2022/11/02 02:45:57;;;;;;;4.13;1.27;;;11.10;99.90;;;;;;5069734;28;20039;-78
2022/11/02 02:48:24;;;;;;;4.85;1.35;;;11.10;99.90;;;;;;5066755;28;20511;-79
2022/11/02 02:50:54;;;;;;;6.07;1.63;;;11.20;99.90;;;;;;5053201;28;20036;-79
2022/11/02 02:53:27;;;;;;;8.80;1.90;;;11.20;99.90;;;;;;5072324;28;20468;-79
2022/11/02 02:55:56;;;;;;;6.60;1.85;;;11.30;99.90;;;;;;5053247;28;20096;-79
2022/11/02 02:58:27;;;;;;;9.93;1.73;;;11.30;99.90;;;;;;5055782;28;20033;-79
2022/11/02 03:00:53;;;;;;;6.88;1.35;;;11.30;99.90;;;;;;5055632;28;20041;-79
2022/11/02 03:03:24;;;;;;;2.22;0.85;;;11.30;99.90;;;;;;5055436;28;20033;-79
2022/11/02 03:06:17;;;;;;;1.98;1.00;;;11.40;99.90;;;;;;5055444;28;20028;-79
2022/11/02 03:08:52;;;;;;;2.63;0.80;;;11.50;99.90;;;;;;5070839;28;20500;-79
2022/11/02 03:11:20;;;;;;;4.30;1.30;;;11.50;99.90;;;;;;5069889;28;20044;-79
2022/11/02 03:14:01;;;;;;;5.80;0.90;;;11.50;99.90;;;;;;5072126;28;20573;-79
2022/11/02 03:16:42;;;;;;;1.50;0.50;;;11.50;99.90;;;;;;5054680;28;20055;-79
2022/11/02 03:19:29;;;;;;;1.10;0.60;;;11.40;99.90;;;;;;5055004;28;20041;-79
2022/11/02 03:22:01;;;;;;;5.22;0.85;;;11.40;99.90;;;;;;5069200;28;20040;-79
2022/11/02 03:24:44;;;;;;;1.75;0.60;;;11.30;99.90;;;;;;5055094;28;20044;-79
2022/11/02 03:27:42;;;;;;;4.22;1.00;;;11.30;99.90;;;;;;5054522;28;20119;-79
2022/11/02 03:30:16;;;;;;;;;;;11.20;99.90;;;;;;5058991;28;20048;-79
2022/11/02 03:33:04;;;;;;;6.25;0.88;;;11.20;99.90;;;;;;5055412;28;19974;-79
2022/11/02 03:35:46;;;;;;;2.25;0.50;;;11.20;99.90;;;;;;5071983;28;20056;-80
2022/11/02 03:38:16;;;;;;;5.88;0.65;;;11.20;99.90;;;;;;5055038;28;20127;-79
2022/11/02 03:40:46;;;;;;;2.67;0.55;;;11.20;99.90;;;;;;5071880;28;20047;-79
2022/11/02 03:43:15;;;;;;;2.38;0.70;;;11.30;99.90;;;;;;5072015;28;20457;-79
2022/11/02 03:45:50;;;;;;;3.60;0.70;;;11.10;99.90;;;;;;5072152;28;20040;-79
2022/11/02 03:48:18;;;;;;;3.95;0.80;;;11.20;99.90;;;;;;5055424;28;20036;-79
2022/11/02 03:50:50;;;;;;;3.85;0.73;;;11.20;99.90;;;;;;5071501;28;20083;-79
2022/11/02 03:53:37;;;;;;;9.35;1.00;;;11.10;99.90;;;;;;5054761;28;20123;-79
2022/11/02 03:56:08;;;;;;;4.20;1.00;;;11.40;99.90;;;;;;5052983;28;20119;-79
2022/11/02 03:58:35;;;;;;;3.08;0.73;;;11.10;99.90;;;;;;5054830;28;20040;-79
2022/11/02 04:01:07;;;;;;;;;;;11.00;99.90;;;;;;5071570;28;20085;-79
2022/11/02 04:03:35;;;;;;;4.00;0.82;;;11.00;99.90;;;;;;5071154;28;19975;-79
2022/11/02 04:06:01;;;;;;;3.13;0.95;;;11.00;99.90;;;;;;5054169;28;20098;-79
2022/11/02 04:08:45;;;;;;;4.57;0.80;;;10.90;99.90;;;;;;5038248;28;20066;-79
2022/11/02 04:16:40;;;;;;;4.88;1.13;;;11.00;99.90;;;;;;5056769;28;20072;-79
2022/11/02 04:27:19;;;;;;;5.10;0.90;;;11.10;99.90;;;;;;5056737;28;20064;-79
2022/11/02 04:29:45;;;;;;;5.85;1.08;;;11.20;99.90;;;;;;5070798;28;20052;-78
2022/11/02 04:32:11;;;;;;;2.00;0.50;;;11.30;99.90;;;;;;5053550;28;20123;-79
2022/11/02 04:34:39;;;;;;;5.27;0.87;;;11.30;99.90;;;;;;5070539;28;20279;-79
2022/11/02 04:38:39;;;;;;;4.18;0.75;;;11.20;99.90;;;;;;5053664;28;20139;-78
2022/11/02 04:39:50;;;;;;;7.90;0.90;;;11.50;99.90;;;;;;5070282;28;20041;-78
2022/11/02 04:42:16;;;;;;;5.43;1.10;;;11.70;99.90;;;;;;5053527;28;20029;-78
2022/11/02 04:44:41;;;;;;;2.47;0.80;;;11.30;99.90;;;;;;5037373;28;20093;-78
2022/11/02 04:47:07;;;;;;;5.43;0.90;;;11.30;99.90;;;;;;5053402;28;20040;-78
2022/11/02 04:49:33;;;;;;;5.40;1.33;;;11.20;99.90;;;;;;5070031;28;20056;-78
2022/11/02 04:51:58;;;;;;;4.00;1.10;;;11.20;99.90;;;;;;5052891;28;20327;-78
2022/11/02 04:54:24;;;;;;;3.63;1.13;;;11.10;99.90;;;;;;5036976;28;20753;-78
2022/11/02 04:56:50;;;;;;;6.07;1.00;;;11.00;99.90;;;;;;5053658;28;20432;-78
2022/11/02 04:59:16;;;;;;;3.70;0.85;;;11.00;99.90;;;;;;5036619;28;20068;-78
2022/11/02 05:01:41;;;;;;;6.50;1.10;;;10.90;99.90;;;;;;5037021;28;20464;-78
2022/11/02 05:04:09;;;;;;;5.17;1.00;;;11.00;99.90;;;;;;5053532;28;20283;-78
2022/11/02 05:06:35;;;;;;;5.72;0.90;;;10.90;99.90;;;;;;5053394;28;20037;-78
2022/11/02 05:09:01;;;;;;;9.95;1.08;;;10.90;99.90;;;;;;5052784;28;20036;-78
2022/11/02 05:11:26;;;;;;;7.43;1.50;;;10.90;99.90;;;;;;5036538;28;20038;-79
2022/11/02 05:13:52;;;;;;;4.93;1.00;;;10.80;99.90;;;;;;5036448;28;20075;-77
2022/11/02 05:16:18;;;;;;;3.50;1.43;;;10.80;99.90;;;;;;5036041;28;20051;-79
2022/11/02 05:18:43;;;;;;;3.08;0.98;;;10.80;99.90;;;;;;5036678;28;20102;-78
2022/11/02 05:21:10;;;;;;;5.43;1.10;;;10.90;99.90;;;;;;5069251;28;20101;-78
2022/11/02 05:23:37;;;;;;;7.65;1.38;;;10.90;99.90;;;;;;5052994;28;20540;-80
2022/11/02 05:26:05;;;;;;;6.55;1.10;;;11.10;99.90;;;;;;5068313;28;20045;-79
2022/11/02 05:28:31;;;;;;;7.55;1.48;;;11.10;99.90;;;;;;5053052;28;20443;-80
2022/11/02 05:30:59;;;;;;;10.10;1.45;;;11.00;99.90;;;;;;5069579;28;20040;-78
2022/11/02 05:33:27;;;;;;;6.78;1.40;;;11.00;99.90;;;;;;5069264;28;20044;-78
2022/11/02 05:35:57;;;;;;;3.80;1.00;;;10.90;99.90;;;;;;5067288;28;20071;-79
2022/11/02 05:38:24;;;;;;;7.43;2.08;;;10.90;99.90;;;;;;5019694;28;20465;-78
2022/11/02 05:40:54;;;;;;;7.55;1.65;;;10.90;99.90;;;;;;5069579;28;20105;-79
2022/11/02 05:43:20;;;;;;;8.18;1.60;;;10.90;99.90;;;;;;5052812;28;20083;-79
2022/11/02 05:45:58;;;;;;;4.68;1.42;;;11.40;99.90;;;;;;5053318;28;20048;-78
2022/11/02 05:48:25;;;;;;;7.10;1.55;;;10.90;99.90;;;;;;5052607;28;20040;-78
2022/11/02 05:50:55;;;;;;;6.80;1.85;;;10.90;99.90;;;;;;5053043;28;20051;-78
2022/11/02 05:53:22;;;;;;;8.05;1.20;;;10.90;99.90;;;;;;5052189;28;20037;-79
2022/11/02 05:55:47;;;;;;;7.03;1.50;;;11.00;99.90;;;;;;5052144;28;20565;-79
2022/11/02 05:58:13;;;;;;;5.20;1.57;;;10.80;99.90;;;;;;5051046;28;20068;-79
2022/11/02 06:00:39;;;;;;;8.73;1.50;;;10.80;99.90;;;;;;5018633;28;20372;-80
2022/11/02 06:03:05;;;;;;;6.50;1.52;;;11.00;99.90;;;;;;5036104;28;20194;-80
2022/11/02 06:05:31;;;;;;;;;;;11.00;99.90;;;;;;5053441;28;20480;-80
2022/11/02 06:07:58;;;;;;;3.67;1.10;;;11.00;99.90;;;;;;5052532;28;19923;-79
2022/11/02 06:10:25;;;;;;;8.93;1.88;;;11.00;99.90;;;;;;5035360;28;20044;-79
2022/11/02 06:12:59;;;;;;;7.55;1.13;;;11.00;99.90;;;;;;5050595;28;20123;-79
2022/11/02 06:15:26;;;;;;;5.15;1.40;;;11.30;99.90;;;;;;5052763;28;20037;-79
2022/11/02 06:17:52;;;;;;;;;;;10.80;99.90;;;;;;5069465;28;20052;-79
2022/11/02 06:20:18;;;;;;;9.75;1.65;;;10.90;99.90;;;;;;5052656;28;19999;-80
2022/11/02 06:22:44;;;;;;;11.27;2.15;;;10.90;99.90;;;;;;5036238;28;20039;-79
2022/11/02 06:25:10;;;;;;;7.97;1.30;;;10.90;99.90;;;;;;5052502;28;20412;-79
2022/11/02 06:27:36;;;;;;;7.75;1.40;;;11.00;99.90;;;;;;5064588;28;20041;-79
2022/11/02 06:30:02;;;;;;;7.22;1.77;;;10.90;99.90;;;;;;5052831;28;20033;-79
2022/11/02 06:32:28;;;;;;;10.38;1.85;;;11.00;99.90;;;;;;5035944;28;20477;-79
2022/11/02 06:34:54;;;;;;;4.37;1.60;;;10.90;99.90;;;;;;5036218;28;20041;-79
2022/11/02 06:37:21;;;;;;;10.45;1.67;;;11.00;99.90;;;;;;5070322;28;20037;-79
2022/11/02 06:39:47;;;;;;;10.95;2.20;;;11.00;99.90;;;;;;5040581;28;20472;-78
2022/11/02 06:42:12;;;;;;;11.50;1.42;;;11.00;99.90;;;;;;5056218;28;20142;-74
2022/11/02 06:44:38;;;;;;;7.70;1.63;;;11.00;99.90;;;;;;5072219;28;20032;-74
2022/11/02 06:47:04;;;;;;;12.63;1.70;;;11.00;99.90;;;;;;5070293;28;20287;-74
2022/11/02 06:49:30;;;;;;;6.63;1.45;;;11.00;99.90;;;;;;5055579;28;20078;-74
2022/11/02 06:51:56;;;;;;;7.80;1.80;;;10.90;99.90;;;;;;5072342;28;20397;-74
2022/11/02 06:54:21;;;;;;;6.83;1.67;;;10.70;99.90;;;;;;5055754;28;20290;-74
2022/11/02 06:56:47;;;;;;;10.17;2.23;;;10.70;99.90;;;;;;5072459;28;20043;-74
2022/11/02 06:59:13;;;;;;;8.27;1.40;;;10.70;99.90;;;;;;5071872;28;20056;-74
2022/11/02 07:01:38;;;;;;;10.20;1.63;;;10.60;99.90;;;;;;5072428;28;20041;-74
2022/11/02 07:04:04;;;;;;;12.23;1.60;;;10.60;99.90;;;;;;5055376;28;20285;-75
2022/11/02 07:06:29;;;;;;;10.20;1.40;;;10.50;99.90;;;;;;5055008;28;20044;-75
2022/11/02 07:08:55;;;;;;;10.77;2.30;;;10.60;99.90;;;;;;5071875;28;20327;-75
2022/11/02 07:11:21;;;;;;;8.53;1.50;;;10.60;99.90;;;;;;5022001;28;20036;-74
2022/11/02 07:13:47;;;;;;;6.45;1.42;;;10.60;99.90;;;;;;5055020;28;20094;-75
2022/11/02 07:16:13;;;;;;;8.38;1.58;;;10.50;99.90;;;;;;5054950;28;20125;-75
2022/11/02 07:18:40;;;;;;;9.18;1.83;;;10.70;99.90;;;;;;5055402;28;20127;-76
2022/11/02 07:21:06;;;;;;;8.18;1.40;;;10.70;99.90;;;;;;5055473;28;20084;-73
2022/11/02 07:23:32;;;;;;;13.05;1.63;;;10.80;99.90;;;;;;5070834;28;20043;-76
2022/11/02 07:26:00;;;;;;;9.00;1.60;;;10.80;99.90;;;;;;5071213;28;20044;-76
2022/11/02 07:28:26;;;;;;;9.55;2.50;;;10.70;99.90;;;;;;5054343;28;20123;-75
2022/11/02 07:30:55;;;;;;;9.07;1.63;;;10.70;99.90;;;;;;5054754;28;20128;-75
2022/11/02 07:33:21;;;;;;;9.77;1.55;;;10.70;99.90;;;;;;5070904;28;20298;-74
2022/11/02 07:35:47;;;;;;;7.22;1.13;;;10.70;99.90;;;;;;5054685;28;20044;-74
2022/11/02 07:38:12;;;;;;;9.93;1.57;;;10.70;99.90;;;;;;5071130;28;20553;-74
2022/11/02 07:40:38;;;;;;;8.45;1.30;;;10.70;99.90;;;;;;5071542;28;20301;-75
2022/11/02 07:43:05;;;;;;;6.97;0.95;;;10.70;99.90;;;;;;5038397;28;20197;-74
2022/11/02 07:45:31;;;;;;;6.72;1.10;;;10.80;99.90;;;;;;5054174;28;20044;-75
2022/11/02 07:47:57;;;;;;;5.00;0.60;;;10.70;99.90;;;;;;5071188;28;20123;-75
2022/11/02 07:50:25;;;;;;;4.88;0.70;;;10.60;99.90;;;;;;5070413;28;20497;-76
2022/11/02 07:52:53;;;;;;;5.72;0.80;;;10.60;99.90;;;;;;5054844;28;20113;-75
2022/11/02 07:55:21;;;;;;;4.30;0.60;;;10.60;99.90;;;;;;5070917;28;20028;-75
2022/11/02 07:57:55;;;;;;;5.68;0.93;;;10.60;99.90;;;;;;5071188;28;20455;-75
2022/11/02 08:00:21;;;;;;;6.35;0.85;;;10.60;99.90;;;;;;5070815;28;20048;-74
2022/11/02 08:02:47;;;;;;;;;;;10.60;99.90;;;;;;5071551;28;20419;-75
2022/11/02 08:05:13;;;;;;;8.10;1.10;;;10.60;99.90;;;;;;5070505;28;19920;-75
2022/11/02 08:07:38;;;;;;;2.70;0.60;;;10.60;99.90;;;;;;5037537;28;20090;-75
2022/11/02 08:10:04;;;;;;;5.13;0.70;;;10.60;99.90;;;;;;5054406;28;20105;-76
2022/11/02 08:12:30;;;;;;;6.57;0.80;;;10.70;99.90;;;;;;5067657;28;20040;-76
2022/11/02 08:14:56;;;;;;;3.87;0.70;;;10.70;99.90;;;;;;5070803;28;20040;-76
2022/11/02 08:17:23;;;;;;;4.85;1.02;;;10.70;99.90;;;;;;5070402;28;20287;-75
2022/11/02 08:19:49;;;;;;;3.40;1.05;;;11.00;99.90;;;;;;5053674;28;20046;-76
2022/11/02 08:22:14;;;;;;;4.75;0.65;;;11.10;99.90;;;;;;5053306;28;20032;-76
2022/11/02 08:24:40;;;;;;;3.87;0.90;;;11.40;99.90;;;;;;5070282;28;20089;-76
2022/11/02 08:27:06;;;;;;;4.00;0.80;;;11.30;99.90;;;;;;5053681;28;20610;-75
2022/11/02 08:29:31;;;;;;;8.23;1.10;;;11.60;99.90;;;;;;5052952;28;20113;-76
2022/11/02 08:31:57;;;;;;;5.97;1.10;;;11.70;99.90;;;;;;5034552;28;20301;-75
2022/11/02 08:34:23;;;;;;;7.10;1.10;;;11.60;99.90;;;;;;5069034;28;20283;-76
2022/11/02 08:36:48;;;;;;;5.03;0.75;;;11.50;99.90;;;;;;5069655;28;20098;-76
2022/11/02 08:39:14;;;;;;;8.07;0.90;;;11.70;99.90;;;;;;5053206;28;20453;-75
2022/11/02 08:41:43;;;;;;;8.48;1.02;;;12.40;99.90;;;;;;5069777;28;20043;-75
2022/11/02 08:44:08;;;;;;;4.22;0.80;;;13.40;99.90;;;;;;5054177;28;20520;-75
2022/11/02 08:46:34;;;;;;;7.43;0.87;;;14.30;99.90;;;;;;5052894;28;20124;-75
2022/11/02 08:49:00;;;;;;;7.63;1.20;;;15.10;99.90;;;;;;5069884;28;20133;-75
2022/11/02 08:51:25;;;;;;;5.10;1.20;;;15.60;99.90;;;;;;5052920;28;20064;-75
2022/11/02 08:53:51;;;;;;;5.75;1.00;;;16.10;99.90;;;;;;5052987;28;20441;-76
2022/11/02 08:56:17;;;;;;;4.70;0.80;;;16.60;99.90;;;;;;5053102;28;20105;-74
2022/11/02 08:58:43;;;;;;;5.43;0.90;;;16.90;99.90;;;;;;5069603;28;20098;-75
2022/11/02 09:01:08;;;;;;;5.72;1.10;;;17.20;99.90;;;;;;5052957;28;20090;-74
2022/11/02 09:03:34;;;;;;;6.82;0.93;;;17.40;99.90;;;;;;5052975;28;20097;-75
2022/11/02 09:06:01;;;;;;;4.03;0.98;;;17.60;99.90;;;;;;5070210;28;20102;-75
2022/11/02 09:08:28;;;;;;;7.47;1.05;;;18.00;99.90;;;;;;5069298;28;20123;-75
2022/11/02 09:10:57;;;;;;;3.03;0.77;;;18.30;99.90;;;;;;5070059;28;20044;-75
2022/11/02 09:13:25;;;;;;;3.80;0.80;;;18.50;99.90;;;;;;5052558;28;20050;-75
2022/11/02 09:15:53;;;;;;;6.18;0.98;;;18.30;99.90;;;;;;5036659;28;20064;-75
2022/11/02 09:18:19;;;;;;;8.57;1.08;;;17.60;99.90;;;;;;5069229;28;20051;-75
2022/11/02 09:20:47;;;;;;;5.50;1.05;;;17.50;99.90;;;;;;5069605;28;20094;-75
2022/11/02 09:23:16;;;;;;;5.53;1.13;;;17.70;99.90;;;;;;5036552;28;20128;-75
2022/11/02 09:25:42;;;;;;;3.92;0.80;;;18.30;99.90;;;;;;5051920;28;20094;-75
2022/11/02 09:28:08;;;;;;;6.30;0.88;;;18.70;99.90;;;;;;5052683;28;20040;-75
2022/11/02 09:30:33;;;;;;;7.20;1.15;;;18.80;99.90;;;;;;5068791;28;20055;-74
2022/11/02 09:33:01;;;;;;;8.02;1.48;;;19.00;99.90;;;;;;5069529;28;20036;-75
2022/11/02 09:35:29;;;;;;;6.13;1.00;;;18.60;99.90;;;;;;5069076;28;20048;-75
2022/11/02 09:37:55;;;;;;;5.75;0.98;;;18.30;99.90;;;;;;5052696;28;20197;-75
2022/11/02 09:40:24;;;;;;;9.05;1.20;;;18.40;99.90;;;;;;5052231;28;20115;-75
2022/11/02 09:43:25;;;;;;;5.82;1.00;;;18.60;99.90;;;;;;5068741;28;20047;-75
2022/11/02 09:45:58;;;;;;;5.82;1.10;;;18.70;99.90;;;;;;5069734;28;20408;-76
2022/11/02 09:48:49;;;;;;;6.13;1.00;;;18.80;99.90;;;;;;5069045;28;20048;-76
2022/11/02 09:51:24;;;;;;;6.05;1.10;;;19.00;99.90;;;;;;5069412;28;20041;-76
2022/11/02 09:54:32;;;;;;;5.65;1.23;;;18.60;99.90;;;;;;5069293;28;20037;-75
2022/11/02 09:57:00;;;;;;;;;;;17.70;99.90;;;;;;5048566;28;20111;-75
2022/11/02 09:59:26;;;;;;;7.57;1.00;;;17.10;99.90;;;;;;5068879;28;19977;-75
2022/11/02 10:02:11;;;;;;;6.18;0.98;;;16.50;99.90;;;;;;5052563;28;20094;-75
2022/11/02 10:04:57;;;;;;;5.57;1.20;;;16.10;99.90;;;;;;5052497;28;20041;-75
2022/11/02 10:08:04;;;;;;;6.85;1.02;;;15.70;99.90;;;;;;5052704;28;20036;-75
2022/11/02 10:10:53;;;;;;;6.50;1.30;;;15.50;99.90;;;;;;5066765;28;20048;-75
2022/11/02 10:13:36;;;;;;;6.20;1.15;;;15.30;99.90;;;;;;5072087;28;20050;-75
2022/11/02 10:16:20;;;;;;;6.60;1.13;;;15.30;99.90;;;;;;5073001;28;20131;-75
2022/11/02 10:18:49;;;;;;;8.13;1.23;;;15.20;99.90;;;;;;5070451;28;20051;-75
2022/11/02 10:21:42;;;;;;;6.50;1.30;;;15.10;99.90;;;;;;5056798;28;20071;-75
2022/11/02 10:24:29;;;;;;;7.30;1.27;;;15.60;99.90;;;;;;5069726;28;20052;-75
2022/11/02 10:27:05;;;;;;;7.43;1.25;;;16.20;99.90;;;;;;5072981;28;20094;-75
2022/11/02 10:29:46;;;;;;;6.43;1.23;;;17.30;99.90;;;;;;5071088;28;20064;-75
2022/11/02 10:32:13;;;;;;;7.70;1.17;;;18.40;99.90;;;;;;5071433;28;20102;-75
2022/11/02 10:34:40;;;;;;;9.32;1.60;;;19.00;99.90;;;;;;5055686;28;20111;-75
2022/11/02 10:37:29;;;;;;;6.22;1.08;;;19.30;99.90;;;;;;5072982;28;20033;-75
2022/11/02 10:40:21;;;;;;;5.70;1.05;;;19.40;99.90;;;;;;5055583;28;20125;-76
2022/11/02 10:43:32;;;;;;;5.82;1.02;;;20.00;99.90;;;;;;5055986;28;20040;-77
2022/11/02 10:46:10;;;;;;;6.75;1.33;;;20.50;99.90;;;;;;5056336;28;20079;-77
2022/11/02 10:48:57;;;;;;;6.55;1.30;;;20.10;99.90;;;;;;5070033;28;20071;-77
2022/11/02 10:51:23;;;;;;;5.07;1.10;;;20.10;99.90;;;;;;5070516;28;20400;-77
2022/11/02 10:53:51;;;;;;;10.35;1.50;;;20.50;99.90;;;;;;5054197;28;20032;-76
2022/11/02 10:56:21;;;;;;;8.55;1.23;;;20.80;99.90;;;;;;5071438;28;20036;-77
2022/11/02 10:59:11;;;;;;;4.45;0.93;;;20.90;99.90;;;;;;5070738;28;20032;-76
2022/11/02 11:02:02;;;;;;;5.57;0.90;;;20.90;99.90;;;;;;5071042;28;20064;-77
2022/11/02 11:04:30;;;;;;;8.23;1.42;;;20.80;99.90;;;;;;5055481;28;20093;-77
2022/11/02 11:07:02;;;;;;;5.63;0.80;;;20.90;99.90;;;;;;5070169;28;20438;-77
2022/11/02 11:09:32;;;;;;;8.10;1.33;;;21.20;99.90;;;;;;5072311;28;20043;-77
2022/11/02 11:12:06;;;;;;;7.40;1.45;;;21.00;99.90;;;;;;5070157;28;20052;-77
2022/11/02 11:14:38;;;;;;;5.57;0.95;;;20.30;99.90;;;;;;5056152;28;20533;-77
2022/11/02 11:17:16;;;;;;;7.15;1.00;;;19.70;99.90;;;;;;5060976;28;20126;-77
2022/11/02 11:19:49;;;;;;;8.48;1.27;;;19.90;99.90;;;;;;5055066;28;20488;-77
2022/11/02 11:22:44;;;;;;;6.97;1.33;;;20.00;99.90;;;;;;5054714;28;20530;-77
2022/11/02 11:25:26;;;;;;;5.18;1.00;;;20.10;99.90;;;;;;5052533;28;20051;-77
2022/11/02 11:27:53;;;;;;;8.90;1.40;;;20.40;99.90;;;;;;5054696;28;20134;-77
2022/11/02 11:30:31;;;;;;;8.18;1.55;;;20.60;99.90;;;;;;5072099;28;20147;-77
2022/11/02 11:32:58;;;;;;;10.57;1.55;;;20.80;99.90;;;;;;5072037;28;20047;-76
2022/11/02 11:35:30;;;;;;;5.00;1.17;;;21.00;99.90;;;;;;5071734;28;20044;-77
2022/11/02 11:38:07;;;;;;;7.18;1.10;;;20.60;99.90;;;;;;5070490;28;20395;-77
2022/11/02 11:40:36;;;;;;;;;;;21.00;99.90;;;;;;5053560;28;20040;-77
2022/11/02 11:43:04;;;;;;;5.47;1.02;;;21.30;99.80;;;;;;5071767;28;19917;-77
2022/11/02 11:45:32;;;;;;;5.93;1.20;;;21.70;99.50;;;;;;5071335;28;20055;-77
2022/11/02 11:48:06;;;;;;;5.55;1.30;;;22.00;99.90;;;;;;5054438;28;20040;-77
2022/11/02 11:50:32;;;;;;;5.85;1.33;;;22.40;98.90;;;;;;5054342;28;20048;-77
2022/11/02 11:53:24;;;;;;;5.20;0.93;;;22.80;98.80;;;;;;5037141;28;20067;-77
2022/11/02 11:55:58;;;;;;;3.40;0.70;;;23.00;98.80;;;;;;5054184;28;20393;-77
2022/11/02 11:58:49;;;;;;;5.32;1.10;;;22.60;96.60;;;;;;5054770;28;20066;-77
2022/11/02 12:01:17;;;;;;;4.93;0.90;;;22.20;96.20;;;;;;5070791;28;20460;-76
2022/11/02 12:03:59;;;;;;;5.47;1.10;;;22.60;97.10;;;;;;5070804;28;20086;-76
2022/11/02 12:07:02;;;;;;;4.97;1.30;;;22.50;97.10;;;;;;5071043;28;20040;-76
2022/11/02 12:09:44;;;;;;;4.88;1.15;;;22.70;96.80;;;;;;5053914;28;20123;-76
2022/11/02 12:12:17;;;;;;;5.88;0.95;;;22.90;96.70;;;;;;5054650;28;20489;-77
2022/11/02 12:15:04;;;;;;;4.07;0.88;;;23.00;96.40;;;;;;5053964;28;20046;-76
2022/11/02 12:17:36;;;;;;;;;;;22.80;96.50;;;;;;5070980;28;20052;-76
2022/11/02 12:20:05;;;;;;;4.28;1.20;;;22.20;96.40;;;;;;5054166;28;19923;-76
2022/11/02 12:23:03;;;;;;;6.18;1.08;;;22.10;96.50;;;;;;5052011;28;20059;-76
2022/11/02 12:25:55;;;;;;;5.90;1.10;;;21.80;96.90;;;;;;5070585;28;20044;-76
2022/11/02 12:28:41;;;;;;;5.05;0.82;;;21.10;97.00;;;;;;5070544;28;20102;-76
2022/11/02 12:31:35;;;;;;;4.40;0.88;;;20.60;97.50;;;;;;5068726;28;20097;-76
2022/11/02 12:34:20;;;;;;;5.70;1.20;;;20.30;97.80;;;;;;5070191;28;20098;-76
2022/11/02 12:36:52;;;;;;;7.13;1.08;;;20.70;98.40;;;;;;5051272;28;20033;-76
2022/11/02 12:39:39;;;;;;;7.63;1.30;;;21.00;97.50;;;;;;5053540;28;20397;-76
2022/11/02 12:42:19;;;;;;;7.93;1.35;;;21.10;97.40;;;;;;5053132;28;20036;-77
2022/11/02 12:45:07;;;;;;;5.13;0.95;;;21.20;97.90;;;;;;5051376;28;20032;-77
2022/11/02 12:47:35;;;;;;;6.75;1.20;;;20.70;97.90;;;;;;5069751;28;20040;-76
2022/11/02 12:50:16;;;;;;;4.47;0.90;;;20.10;97.80;;;;;;5070387;28;20047;-77
2022/11/02 12:53:16;;;;;;;4.60;0.88;;;19.40;98.60;;;;;;5069995;28;20040;-76
2022/11/02 12:55:47;;;;;;;6.38;1.02;;;18.80;99.20;;;;;;5068974;28;20032;-75
2022/11/02 12:58:32;;;;;;;7.82;1.00;;;18.50;99.30;;;;;;5070375;28;20115;-75
2022/11/02 13:01:07;;;;;;;7.50;0.80;;;18.20;99.90;;;;;;5053525;28;20048;-76
2022/11/02 13:03:49;;;;;;;6.13;0.98;;;18.10;99.90;;;;;;5068559;28;20036;-76
2022/11/02 13:06:20;;;;;;;9.93;1.33;;;18.10;99.90;;;;;;5068386;28;20451;-76
2022/11/02 13:08:54;;;;;;;7.32;1.00;;;18.20;99.90;;;;;;5069847;28;20109;-77
2022/11/02 13:11:36;;;;;;;7.63;0.85;;;18.10;99.90;;;;;;5068803;28;20117;-77
2022/11/02 13:14:05;;;;;;;7.63;1.20;;;17.90;99.90;;;;;;5051993;28;20047;-77
2022/11/02 13:16:56;;;;;;;6.97;1.15;;;17.70;99.90;;;;;;5053201;28;20048;-77
2022/11/02 13:19:33;;;;;;;6.45;1.05;;;17.50;99.90;;;;;;5052366;28;20127;-77
2022/11/02 13:22:01;;;;;;;6.35;1.17;;;17.40;99.90;;;;;;5069668;28;20043;-77
2022/11/02 13:24:33;;;;;;;5.32;1.10;;;17.40;99.90;;;;;;5070231;28;20048;-76